sensor_id;sensor_type;location;lat;lon;timestamp;pressure;altitude;pressure_sealevel;temperature;humidity
11936;BME280;6027;48.576;9.180;2023-06-24T00:02:02;97748.47;;;17.03;100.00
11936;BME280;6027;48.576;9.180;2023-06-24T00:04:28;97754.44;;;16.98;100.00
11936;BME280;6027;48.576;9.180;2023-06-24T00:06:53;97744.78;;;17.04;100.00
11936;BME280;6027;48.576;9.180;2023-06-24T00:09:23;97745.19;;;17.01;100.00
11936;BME280;6027;48.576;9.180;2023-06-24T00:11:49;97738.94;;;16.74;100.00
11936;BME280;6027;48.576;9.180;2023-06-24T00:14:14;97742.78;;;16.65;100.00
11936;BME280;6027;48.576;9.180;2023-06-24T00:16:40;97742.09;;;16.56;100.00
11936;BME280;6027;48.576;9.180;2023-06-24T00:19:07;97747.44;;;16.49;100.00
11936;BME280;6027;48.576;9.180;2023-06-24T00:21:34;97739.84;;;16.59;100.00
11936;BME280;6027;48.576;9.180;2023-06-24T00:24:02;97745.00;;;16.54;100.00
11936;BME280;6027;48.576;9.180;2023-06-24T00:26:30;97743.94;;;16.49;100.00
11936;BME280;6027;48.576;9.180;2023-06-24T00:28:55;97748.69;;;16.53;100.00
11936;BME280;6027;48.576;9.180;2023-06-24T00:31:21;97744.38;;;16.52;100.00
11936;BME280;6027;48.576;9.180;2023-06-24T00:33:46;97739.41;;;16.56;100.00
11936;BME280;6027;48.576;9.180;2023-06-24T00:36:12;97741.69;;;16.52;100.00
11936;BME280;6027;48.576;9.180;2023-06-24T00:38:39;97744.16;;;16.54;100.00
11936;BME280;6027;48.576;9.180;2023-06-24T00:41:04;97754.84;;;16.54;100.00
11936;BME280;6027;48.576;9.180;2023-06-24T00:43:31;97753.59;;;16.50;100.00
11936;BME280;6027;48.576;9.180;2023-06-24T00:45:57;97743.72;;;16.50;100.00
11936;BME280;6027;48.576;9.180;2023-06-24T00:48:23;97741.06;;;16.50;100.00
11936;BME280;6027;48.576;9.180;2023-06-24T00:50:49;97743.94;;;16.49;100.00
11936;BME280;6027;48.576;9.180;2023-06-24T00:53:18;97752.28;;;16.39;100.00
11936;BME280;6027;48.576;9.180;2023-06-24T00:55:46;97752.53;;;16.44;100.00
11936;BME280;6027;48.576;9.180;2023-06-24T00:58:13;97747.19;;;16.44;100.00
11936;BME280;6027;48.576;9.180;2023-06-24T01:00:42;97745.53;;;16.43;100.00
11936;BME280;6027;48.576;9.180;2023-06-24T01:03:11;97747.34;;;16.36;100.00
11936;BME280;6027;48.576;9.180;2023-06-24T01:05:39;97744.88;;;16.35;100.00
11936;BME280;6027;48.576;9.180;2023-06-24T01:08:06;97756.63;;;16.40;100.00
11936;BME280;6027;48.576;9.180;2023-06-24T01:10:31;97751.06;;;16.35;100.00
11936;BME280;6027;48.576;9.180;2023-06-24T01:12:57;97742.22;;;16.35;100.00
11936;BME280;6027;48.576;9.180;2023-06-24T01:15:23;97742.59;;;16.32;100.00
11936;BME280;6027;48.576;9.180;2023-06-24T01:20:55;97748.97;;;16.31;100.00
11936;BME280;6027;48.576;9.180;2023-06-24T01:23:47;97736.53;;;16.16;100.00
11936;BME280;6027;48.576;9.180;2023-06-24T01:26:38;97742.63;;;16.04;100.00
11936;BME280;6027;48.576;9.180;2023-06-24T01:31:59;97736.19;;;15.92;100.00
11936;BME280;6027;48.576;9.180;2023-06-24T01:37:10;97733.13;;;15.95;100.00
11936;BME280;6027;48.576;9.180;2023-06-24T01:39:49;97736.19;;;15.92;100.00
11936;BME280;6027;48.576;9.180;2023-06-24T01:42:17;97737.44;;;15.96;100.00
11936;BME280;6027;48.576;9.180;2023-06-24T01:44:45;97735.81;;;16.01;100.00
11936;BME280;6027;48.576;9.180;2023-06-24T01:47:15;97740.72;;;15.98;100.00
11936;BME280;6027;48.576;9.180;2023-06-24T01:49:43;97742.53;;;15.91;100.00
11936;BME280;6027;48.576;9.180;2023-06-24T01:52:11;97738.41;;;15.88;100.00
11936;BME280;6027;48.576;9.180;2023-06-24T01:54:38;97736.38;;;15.90;100.00
11936;BME280;6027;48.576;9.180;2023-06-24T01:57:06;97733.31;;;15.93;100.00
11936;BME280;6027;48.576;9.180;2023-06-24T01:59:33;97730.88;;;15.98;100.00
11936;BME280;6027;48.576;9.180;2023-06-24T02:02:00;97735.59;;;15.96;100.00
11936;BME280;6027;48.576;9.180;2023-06-24T02:04:27;97731.81;;;15.84;100.00
11936;BME280;6027;48.576;9.180;2023-06-24T02:06:59;97731.34;;;15.80;100.00
11936;BME280;6027;48.576;9.180;2023-06-24T02:09:27;97736.28;;;15.77;100.00
11936;BME280;6027;48.576;9.180;2023-06-24T02:11:55;97738.69;;;15.72;100.00
11936;BME280;6027;48.576;9.180;2023-06-24T02:14:21;97740.16;;;15.74;100.00
11936;BME280;6027;48.576;9.180;2023-06-24T02:16:49;97740.75;;;15.70;100.00
11936;BME280;6027;48.576;9.180;2023-06-24T02:21:44;97726.50;;;15.41;100.00
11936;BME280;6027;48.576;9.180;2023-06-24T02:24:11;97729.41;;;15.46;100.00
11936;BME280;6027;48.576;9.180;2023-06-24T02:26:37;97723.50;;;15.51;100.00
11936;BME280;6027;48.576;9.180;2023-06-24T02:29:08;97723.50;;;15.51;100.00
11936;BME280;6027;48.576;9.180;2023-06-24T02:31:35;97725.47;;;15.42;100.00
11936;BME280;6027;48.576;9.180;2023-06-24T02:34:01;97725.66;;;15.41;100.00
11936;BME280;6027;48.576;9.180;2023-06-24T02:36:29;97717.66;;;15.41;100.00
11936;BME280;6027;48.576;9.180;2023-06-24T02:38:55;97729.59;;;15.45;100.00
11936;BME280;6027;48.576;9.180;2023-06-24T02:41:20;97727.09;;;15.37;100.00
11936;BME280;6027;48.576;9.180;2023-06-24T02:43:46;97724.34;;;15.30;100.00
11936;BME280;6027;48.576;9.180;2023-06-24T02:46:12;97723.16;;;15.33;100.00
11936;BME280;6027;48.576;9.180;2023-06-24T02:48:39;97722.81;;;15.21;100.00
11936;BME280;6027;48.576;9.180;2023-06-24T02:51:07;97732.72;;;15.06;100.00
11936;BME280;6027;48.576;9.180;2023-06-24T02:53:33;97727.44;;;14.91;100.00
11936;BME280;6027;48.576;9.180;2023-06-24T02:55:59;97730.94;;;14.92;100.00
11936;BME280;6027;48.576;9.180;2023-06-24T02:58:26;97721.91;;;14.93;100.00
11936;BME280;6027;48.576;9.180;2023-06-24T03:00:58;97723.75;;;14.92;100.00
11936;BME280;6027;48.576;9.180;2023-06-24T03:03:26;97727.13;;;14.79;100.00
11936;BME280;6027;48.576;9.180;2023-06-24T03:05:53;97724.91;;;14.68;100.00
11936;BME280;6027;48.576;9.180;2023-06-24T03:08:20;97723.72;;;14.71;100.00
11936;BME280;6027;48.576;9.180;2023-06-24T03:11:05;97730.25;;;14.68;100.00
11936;BME280;6027;48.576;9.180;2023-06-24T03:13:49;97730.63;;;14.65;100.00
11936;BME280;6027;48.576;9.180;2023-06-24T03:16:14;97747.38;;;14.59;100.00
11936;BME280;6027;48.576;9.180;2023-06-24T03:18:41;97737.97;;;14.63;100.00
11936;BME280;6027;48.576;9.180;2023-06-24T03:21:08;97742.75;;;14.68;100.00
11936;BME280;6027;48.576;9.180;2023-06-24T03:23:33;97750.56;;;14.69;100.00
11936;BME280;6027;48.576;9.180;2023-06-24T03:25:59;97761.22;;;14.69;100.00
11936;BME280;6027;48.576;9.180;2023-06-24T03:28:24;97751.28;;;14.78;100.00
11936;BME280;6027;48.576;9.180;2023-06-24T03:30:49;97754.78;;;14.78;100.00
11936;BME280;6027;48.576;9.180;2023-06-24T03:33:15;97759.75;;;14.67;100.00
11936;BME280;6027;48.576;9.180;2023-06-24T03:35:45;97765.09;;;14.67;100.00
11936;BME280;6027;48.576;9.180;2023-06-24T03:38:10;97761.25;;;14.55;100.00
11936;BME280;6027;48.576;9.180;2023-06-24T03:40:37;97763.72;;;14.56;100.00
11936;BME280;6027;48.576;9.180;2023-06-24T03:43:02;97764.75;;;14.55;100.00
11936;BME280;6027;48.576;9.180;2023-06-24T03:45:28;97760.59;;;14.52;100.00
11936;BME280;6027;48.576;9.180;2023-06-24T03:47:53;97768.69;;;14.59;100.00
11936;BME280;6027;48.576;9.180;2023-06-24T03:50:19;97769.72;;;14.58;100.00
11936;BME280;6027;48.576;9.180;2023-06-24T03:52:44;97772.84;;;14.62;100.00
11936;BME280;6027;48.576;9.180;2023-06-24T03:55:10;97772.25;;;14.66;100.00
11936;BME280;6027;48.576;9.180;2023-06-24T03:57:36;97778.22;;;14.68;100.00
11936;BME280;6027;48.576;9.180;2023-06-24T04:00:02;97777.03;;;14.71;100.00
11936;BME280;6027;48.576;9.180;2023-06-24T04:02:38;97782.38;;;14.71;100.00
11936;BME280;6027;48.576;9.180;2023-06-24T04:05:03;97784.66;;;14.74;100.00
11936;BME280;6027;48.576;9.180;2023-06-24T04:07:31;97786.31;;;14.75;100.00
11936;BME280;6027;48.576;9.180;2023-06-24T04:09:57;97789.34;;;14.72;100.00
11936;BME280;6027;48.576;9.180;2023-06-24T04:12:23;97792.09;;;14.64;100.00
11936;BME280;6027;48.576;9.180;2023-06-24T04:14:48;97799.00;;;14.73;100.00
11936;BME280;6027;48.576;9.180;2023-06-24T04:17:14;97799.66;;;14.75;100.00
11936;BME280;6027;48.576;9.180;2023-06-24T04:19:40;97796.81;;;14.76;100.00
11936;BME280;6027;48.576;9.180;2023-06-24T04:22:06;97806.09;;;14.80;100.00
11936;BME280;6027;48.576;9.180;2023-06-24T04:24:31;97817.66;;;14.73;100.00
11936;BME280;6027;48.576;9.180;2023-06-24T04:26:57;97805.25;;;14.80;100.00
11936;BME280;6027;48.576;9.180;2023-06-24T04:29:23;97808.47;;;14.75;100.00
11936;BME280;6027;48.576;9.180;2023-06-24T04:31:48;97810.31;;;14.75;100.00
11936;BME280;6027;48.576;9.180;2023-06-24T04:34:14;97805.44;;;14.64;100.00
11936;BME280;6027;48.576;9.180;2023-06-24T04:36:39;97806.44;;;14.63;100.00
11936;BME280;6027;48.576;9.180;2023-06-24T04:39:05;97804.41;;;14.65;100.00
11936;BME280;6027;48.576;9.180;2023-06-24T04:41:30;97812.16;;;14.60;100.00
11936;BME280;6027;48.576;9.180;2023-06-24T04:43:57;97797.38;;;14.57;100.00
11936;BME280;6027;48.576;9.180;2023-06-24T04:46:23;97810.69;;;14.72;100.00
11936;BME280;6027;48.576;9.180;2023-06-24T04:48:49;97809.31;;;14.76;100.00
11936;BME280;6027;48.576;9.180;2023-06-24T04:51:14;97809.94;;;14.78;100.00
11936;BME280;6027;48.576;9.180;2023-06-24T04:53:40;97809.38;;;14.82;100.00
11936;BME280;6027;48.576;9.180;2023-06-24T04:56:05;97812.84;;;14.83;100.00
11936;BME280;6027;48.576;9.180;2023-06-24T04:58:31;97815.53;;;14.83;100.00
11936;BME280;6027;48.576;9.180;2023-06-24T05:00:56;97812.25;;;14.81;100.00
11936;BME280;6027;48.576;9.180;2023-06-24T05:03:22;97817.00;;;14.85;100.00
11936;BME280;6027;48.576;9.180;2023-06-24T05:05:47;97805.31;;;14.86;100.00
11936;BME280;6027;48.576;9.180;2023-06-24T05:08:13;97808.53;;;14.97;100.00
11936;BME280;6027;48.576;9.180;2023-06-24T05:10:38;97814.94;;;15.02;100.00
11936;BME280;6027;48.576;9.180;2023-06-24T05:13:04;97816.72;;;14.95;100.00
11936;BME280;6027;48.576;9.180;2023-06-24T05:15:29;97819.66;;;15.00;100.00
11936;BME280;6027;48.576;9.180;2023-06-24T05:17:55;97817.59;;;15.02;100.00
11936;BME280;6027;48.576;9.180;2023-06-24T05:20:21;97818.06;;;15.06;100.00
11936;BME280;6027;48.576;9.180;2023-06-24T05:22:46;97823.09;;;14.79;100.00
11936;BME280;6027;48.576;9.180;2023-06-24T05:25:11;97819.47;;;14.87;100.00
11936;BME280;6027;48.576;9.180;2023-06-24T05:27:37;97815.63;;;14.90;100.00
11936;BME280;6027;48.576;9.180;2023-06-24T05:30:03;97822.94;;;15.02;100.00
11936;BME280;6027;48.576;9.180;2023-06-24T05:32:28;97826.72;;;15.08;100.00
11936;BME280;6027;48.576;9.180;2023-06-24T05:34:54;97821.84;;;15.11;100.00
11936;BME280;6027;48.576;9.180;2023-06-24T05:37:20;97830.44;;;15.28;100.00
11936;BME280;6027;48.576;9.180;2023-06-24T05:39:45;97831.91;;;15.31;100.00
11936;BME280;6027;48.576;9.180;2023-06-24T05:42:11;97824.66;;;15.25;100.00
11936;BME280;6027;48.576;9.180;2023-06-24T05:44:36;97823.97;;;15.37;100.00
11936;BME280;6027;48.576;9.180;2023-06-24T05:47:02;97819.72;;;15.43;100.00
11936;BME280;6027;48.576;9.180;2023-06-24T05:49:27;97821.38;;;15.44;100.00
11936;BME280;6027;48.576;9.180;2023-06-24T05:51:53;97823.53;;;15.55;100.00
11936;BME280;6027;48.576;9.180;2023-06-24T05:54:18;97818.09;;;15.63;100.00
11936;BME280;6027;48.576;9.180;2023-06-24T05:56:44;97816.69;;;15.67;100.00
11936;BME280;6027;48.576;9.180;2023-06-24T05:59:09;97824.97;;;15.72;100.00
11936;BME280;6027;48.576;9.180;2023-06-24T06:01:34;97819.19;;;15.69;100.00
11936;BME280;6027;48.576;9.180;2023-06-24T06:04:00;97821.50;;;15.78;100.00
11936;BME280;6027;48.576;9.180;2023-06-24T06:06:25;97825.72;;;15.87;100.00
11936;BME280;6027;48.576;9.180;2023-06-24T06:08:51;97820.00;;;15.91;100.00
11936;BME280;6027;48.576;9.180;2023-06-24T06:11:16;97822.13;;;16.02;100.00
11936;BME280;6027;48.576;9.180;2023-06-24T06:13:41;97826.97;;;16.13;100.00
11936;BME280;6027;48.576;9.180;2023-06-24T06:16:07;97826.41;;;16.24;100.00
11936;BME280;6027;48.576;9.180;2023-06-24T06:18:33;97821.91;;;16.24;100.00
11936;BME280;6027;48.576;9.180;2023-06-24T06:20:58;97821.41;;;16.42;100.00
11936;BME280;6027;48.576;9.180;2023-06-24T06:23:23;97807.44;;;16.47;100.00
11936;BME280;6027;48.576;9.180;2023-06-24T06:25:51;97812.81;;;16.47;100.00
11936;BME280;6027;48.576;9.180;2023-06-24T06:28:16;97817.38;;;16.53;100.00
11936;BME280;6027;48.576;9.180;2023-06-24T06:30:42;97809.88;;;16.70;100.00
11936;BME280;6027;48.576;9.180;2023-06-24T06:33:07;97810.72;;;16.70;100.00
11936;BME280;6027;48.576;9.180;2023-06-24T06:35:32;97807.22;;;16.76;100.00
11936;BME280;6027;48.576;9.180;2023-06-24T06:37:58;97810.53;;;16.78;100.00
11936;BME280;6027;48.576;9.180;2023-06-24T06:40:23;97809.34;;;16.87;100.00
11936;BME280;6027;48.576;9.180;2023-06-24T06:42:49;97819.66;;;16.97;100.00
11936;BME280;6027;48.576;9.180;2023-06-24T06:45:14;97813.91;;;17.00;100.00
11936;BME280;6027;48.576;9.180;2023-06-24T06:47:40;97812.09;;;17.07;100.00
11936;BME280;6027;48.576;9.180;2023-06-24T06:50:06;97809.03;;;17.10;100.00
11936;BME280;6027;48.576;9.180;2023-06-24T06:52:31;97813.59;;;17.23;100.00
11936;BME280;6027;48.576;9.180;2023-06-24T06:54:57;97813.19;;;17.33;100.00
11936;BME280;6027;48.576;9.180;2023-06-24T06:57:23;97815.66;;;17.27;100.00
11936;BME280;6027;48.576;9.180;2023-06-24T06:59:49;97807.66;;;17.41;100.00
11936;BME280;6027;48.576;9.180;2023-06-24T07:02:17;97815.47;;;17.36;100.00
11936;BME280;6027;48.576;9.180;2023-06-24T07:04:43;97806.66;;;17.55;100.00
11936;BME280;6027;48.576;9.180;2023-06-24T07:07:09;97810.22;;;17.82;100.00
11936;BME280;6027;48.576;9.180;2023-06-24T07:09:34;97814.34;;;17.78;100.00
11936;BME280;6027;48.576;9.180;2023-06-24T07:12:01;97804.28;;;17.86;100.00
11936;BME280;6027;48.576;9.180;2023-06-24T07:14:26;97814.16;;;17.79;95.09
11936;BME280;6027;48.576;9.180;2023-06-24T07:16:52;97812.50;;;17.85;95.29
11936;BME280;6027;48.576;9.180;2023-06-24T07:19:17;97812.31;;;18.00;98.37
11936;BME280;6027;48.576;9.180;2023-06-24T07:21:43;97812.28;;;17.93;95.08
11936;BME280;6027;48.576;9.180;2023-06-24T07:24:08;97804.25;;;18.00;96.40
11936;BME280;6027;48.576;9.180;2023-06-24T07:26:34;97811.47;;;17.99;96.17
11936;BME280;6027;48.576;9.180;2023-06-24T07:28:59;97812.94;;;18.08;95.55
11936;BME280;6027;48.576;9.180;2023-06-24T07:31:25;97810.84;;;18.17;95.88
11936;BME280;6027;48.576;9.180;2023-06-24T07:33:50;97810.22;;;18.28;93.78
11936;BME280;6027;48.576;9.180;2023-06-24T07:36:16;97809.78;;;18.38;92.59
11936;BME280;6027;48.576;9.180;2023-06-24T07:38:41;97803.41;;;18.45;88.47
11936;BME280;6027;48.576;9.180;2023-06-24T07:41:07;97803.19;;;18.47;87.79
11936;BME280;6027;48.576;9.180;2023-06-24T07:43:32;97806.09;;;18.45;85.03
11936;BME280;6027;48.576;9.180;2023-06-24T07:45:57;97806.47;;;18.55;83.64
11936;BME280;6027;48.576;9.180;2023-06-24T07:48:23;97806.28;;;18.63;85.14
11936;BME280;6027;48.576;9.180;2023-06-24T07:50:48;97804.78;;;18.68;85.36
11936;BME280;6027;48.576;9.180;2023-06-24T07:53:14;97807.72;;;18.66;80.72
11936;BME280;6027;48.576;9.180;2023-06-24T07:55:39;97808.44;;;18.86;81.45
11936;BME280;6027;48.576;9.180;2023-06-24T07:58:05;97807.81;;;18.91;79.10
11936;BME280;6027;48.576;9.180;2023-06-24T08:00:31;97801.63;;;18.97;83.01
11936;BME280;6027;48.576;9.180;2023-06-24T08:02:59;97798.25;;;19.08;82.41
11936;BME280;6027;48.576;9.180;2023-06-24T08:05:25;97803.81;;;19.13;84.05
11936;BME280;6027;48.576;9.180;2023-06-24T08:07:51;97804.34;;;19.28;81.93
11936;BME280;6027;48.576;9.180;2023-06-24T08:10:17;97800.59;;;19.36;79.76
11936;BME280;6027;48.576;9.180;2023-06-24T08:12:42;97798.72;;;19.43;78.51
11936;BME280;6027;48.576;9.180;2023-06-24T08:15:08;97788.56;;;19.45;78.24
11936;BME280;6027;48.576;9.180;2023-06-24T08:17:34;97793.50;;;19.48;75.55
11936;BME280;6027;48.576;9.180;2023-06-24T08:20:01;97790.41;;;19.51;69.77
11936;BME280;6027;48.576;9.180;2023-06-24T08:22:26;97783.56;;;19.55;69.76
11936;BME280;6027;48.576;9.180;2023-06-24T08:24:52;97793.00;;;19.64;70.03
11936;BME280;6027;48.576;9.180;2023-06-24T08:27:17;97786.38;;;19.67;67.75
11936;BME280;6027;48.576;9.180;2023-06-24T08:35:49;97781.25;;;19.90;68.46
11936;BME280;6027;48.576;9.180;2023-06-24T08:38:15;97786.56;;;19.97;67.52
11936;BME280;6027;48.576;9.180;2023-06-24T08:40:41;97777.91;;;20.20;68.28
11936;BME280;6027;48.576;9.180;2023-06-24T08:43:08;97777.22;;;20.49;67.09
11936;BME280;6027;48.576;9.180;2023-06-24T08:45:34;97779.84;;;20.56;67.27
11936;BME280;6027;48.576;9.180;2023-06-24T08:51:08;97775.34;;;20.68;66.26
11936;BME280;6027;48.576;9.180;2023-06-24T08:53:34;97773.25;;;20.70;67.81
11936;BME280;6027;48.576;9.180;2023-06-24T08:56:01;97771.75;;;20.74;68.68
11936;BME280;6027;48.576;9.180;2023-06-24T08:58:27;97774.59;;;20.79;65.33
11936;BME280;6027;48.576;9.180;2023-06-24T09:00:52;97770.41;;;20.83;65.25
11936;BME280;6027;48.576;9.180;2023-06-24T09:03:18;97769.06;;;20.92;63.99
11936;BME280;6027;48.576;9.180;2023-06-24T09:05:43;97776.13;;;21.05;65.84
11936;BME280;6027;48.576;9.180;2023-06-24T09:08:09;97770.16;;;21.21;58.22
11936;BME280;6027;48.576;9.180;2023-06-24T09:13:05;97763.03;;;21.27;58.66
11936;BME280;6027;48.576;9.180;2023-06-24T09:15:31;97768.44;;;21.27;56.03
11936;BME280;6027;48.576;9.180;2023-06-24T09:17:57;97772.78;;;21.40;56.81
11936;BME280;6027;48.576;9.180;2023-06-24T09:20:23;97771.75;;;21.41;56.82
11936;BME280;6027;48.576;9.180;2023-06-24T09:22:49;97766.47;;;21.34;57.42
11936;BME280;6027;48.576;9.180;2023-06-24T09:25:18;97756.22;;;21.24;56.05
11936;BME280;6027;48.576;9.180;2023-06-24T09:27:48;97754.72;;;21.28;60.61
11936;BME280;6027;48.576;9.180;2023-06-24T09:32:47;97748.00;;;21.49;55.58
11936;BME280;6027;48.576;9.180;2023-06-24T09:35:13;97738.06;;;21.61;54.28
11936;BME280;6027;48.576;9.180;2023-06-24T09:37:39;97743.59;;;21.66;54.29
11936;BME280;6027;48.576;9.180;2023-06-24T09:40:05;97744.31;;;21.74;53.72
11936;BME280;6027;48.576;9.180;2023-06-24T09:42:32;97749.47;;;21.87;51.72
11936;BME280;6027;48.576;9.180;2023-06-24T09:44:57;97733.06;;;21.88;51.76
11936;BME280;6027;48.576;9.180;2023-06-24T09:47:23;97733.53;;;21.97;54.18
11936;BME280;6027;48.576;9.180;2023-06-24T09:49:53;97736.97;;;22.16;54.79
11936;BME280;6027;48.576;9.180;2023-06-24T09:52:20;97730.41;;;22.23;48.69
11936;BME280;6027;48.576;9.180;2023-06-24T09:54:46;97727.34;;;22.20;48.88
11936;BME280;6027;48.576;9.180;2023-06-24T09:57:18;97727.00;;;22.39;49.42
11936;BME280;6027;48.576;9.180;2023-06-24T09:59:48;97724.06;;;22.41;47.98
11936;BME280;6027;48.576;9.180;2023-06-24T10:02:14;97722.06;;;22.36;47.32
11936;BME280;6027;48.576;9.180;2023-06-24T10:04:40;97724.53;;;22.38;48.22
11936;BME280;6027;48.576;9.180;2023-06-24T10:07:07;97726.28;;;22.44;45.20
11936;BME280;6027;48.576;9.180;2023-06-24T10:09:32;97711.63;;;22.40;44.05
11936;BME280;6027;48.576;9.180;2023-06-24T10:11:58;97713.00;;;22.54;44.28
11936;BME280;6027;48.576;9.180;2023-06-24T10:14:23;97713.81;;;22.66;42.95
11936;BME280;6027;48.576;9.180;2023-06-24T10:16:49;97708.28;;;22.61;44.62
11936;BME280;6027;48.576;9.180;2023-06-24T10:19:20;97711.22;;;22.60;46.12
11936;BME280;6027;48.576;9.180;2023-06-24T10:21:53;97714.88;;;22.54;46.09
11936;BME280;6027;48.576;9.180;2023-06-24T10:24:35;97710.66;;;22.58;45.53
11936;BME280;6027;48.576;9.180;2023-06-24T10:27:08;97704.72;;;22.72;45.06
11936;BME280;6027;48.576;9.180;2023-06-24T10:29:37;97697.44;;;22.73;44.04
11936;BME280;6027;48.576;9.180;2023-06-24T10:32:07;97702.19;;;22.78;43.40
11936;BME280;6027;48.576;9.180;2023-06-24T10:34:42;97705.69;;;22.90;43.63
11936;BME280;6027;48.576;9.180;2023-06-24T10:37:30;97695.63;;;23.02;40.52
11936;BME280;6027;48.576;9.180;2023-06-24T10:39:57;97703.16;;;23.00;41.26
11936;BME280;6027;48.576;9.180;2023-06-24T10:44:53;97699.09;;;22.86;43.53
11936;BME280;6027;48.576;9.180;2023-06-24T10:47:19;97691.78;;;22.98;42.79
11936;BME280;6027;48.576;9.180;2023-06-24T10:49:45;97679.91;;;22.99;43.22
11936;BME280;6027;48.576;9.180;2023-06-24T10:52:11;97687.69;;;23.12;42.44
11936;BME280;6027;48.576;9.180;2023-06-24T10:54:38;97682.31;;;23.12;41.22
11936;BME280;6027;48.576;9.180;2023-06-24T10:57:04;97668.72;;;23.07;40.80
11936;BME280;6027;48.576;9.180;2023-06-24T10:59:48;97665.13;;;23.18;42.23
11936;BME280;6027;48.576;9.180;2023-06-24T11:02:16;97661.63;;;23.34;41.60
11936;BME280;6027;48.576;9.180;2023-06-24T11:04:46;97667.28;;;23.50;40.00
11936;BME280;6027;48.576;9.180;2023-06-24T11:07:12;97663.50;;;23.51;38.61
11936;BME280;6027;48.576;9.180;2023-06-24T11:09:40;97655.00;;;23.42;39.08
11936;BME280;6027;48.576;9.180;2023-06-24T11:12:08;97656.63;;;23.26;39.04
11936;BME280;6027;48.576;9.180;2023-06-24T11:14:35;97654.50;;;23.28;39.93
11936;BME280;6027;48.576;9.180;2023-06-24T11:17:02;97647.63;;;23.37;42.54
11936;BME280;6027;48.576;9.180;2023-06-24T11:19:31;97652.81;;;23.56;41.49
11936;BME280;6027;48.576;9.180;2023-06-24T11:22:01;97648.41;;;23.66;40.54
11936;BME280;6027;48.576;9.180;2023-06-24T11:24:29;97642.66;;;23.63;45.42
11936;BME280;6027;48.576;9.180;2023-06-24T11:26:55;97636.75;;;23.83;43.92
11936;BME280;6027;48.576;9.180;2023-06-24T11:29:29;97637.63;;;23.88;41.31
11936;BME280;6027;48.576;9.180;2023-06-24T11:31:55;97634.88;;;23.83;40.70
11936;BME280;6027;48.576;9.180;2023-06-24T11:34:21;97635.50;;;23.90;40.81
11936;BME280;6027;48.576;9.180;2023-06-24T11:36:47;97635.00;;;23.93;40.87
11936;BME280;6027;48.576;9.180;2023-06-24T11:39:27;97629.09;;;23.96;40.93
11936;BME280;6027;48.576;9.180;2023-06-24T11:41:53;97616.47;;;24.02;38.74
11936;BME280;6027;48.576;9.180;2023-06-24T11:44:23;97623.19;;;23.99;40.05
11936;BME280;6027;48.576;9.180;2023-06-24T11:46:49;97628.34;;;24.01;41.63
11936;BME280;6027;48.576;9.180;2023-06-24T11:49:15;97620.38;;;24.11;42.54
11936;BME280;6027;48.576;9.180;2023-06-24T11:51:48;97620.94;;;24.13;43.67
11936;BME280;6027;48.576;9.180;2023-06-24T11:54:16;97618.88;;;24.20;41.20
11936;BME280;6027;48.576;9.180;2023-06-24T11:56:42;97604.91;;;24.28;39.06
11936;BME280;6027;48.576;9.180;2023-06-24T11:59:22;97610.97;;;24.35;38.82
11936;BME280;6027;48.576;9.180;2023-06-24T12:04:18;97604.81;;;24.40;39.07
11936;BME280;6027;48.576;9.180;2023-06-24T12:06:44;97596.69;;;24.40;39.26
11936;BME280;6027;48.576;9.180;2023-06-24T12:09:10;97585.72;;;24.52;38.38
11936;BME280;6027;48.576;9.180;2023-06-24T12:11:36;97588.72;;;24.55;38.12
11936;BME280;6027;48.576;9.180;2023-06-24T12:14:02;97585.78;;;24.57;36.57
11936;BME280;6027;48.576;9.180;2023-06-24T12:16:27;97576.25;;;24.54;37.21
11936;BME280;6027;48.576;9.180;2023-06-24T12:18:53;97579.22;;;24.53;37.08
11936;BME280;6027;48.576;9.180;2023-06-24T12:21:19;97569.72;;;24.50;36.02
11936;BME280;6027;48.576;9.180;2023-06-24T12:23:44;97573.38;;;24.61;35.64
11936;BME280;6027;48.576;9.180;2023-06-24T12:26:10;97573.38;;;24.61;36.23
11936;BME280;6027;48.576;9.180;2023-06-24T12:28:36;97568.22;;;24.59;39.43
11936;BME280;6027;48.576;9.180;2023-06-24T12:31:01;97556.06;;;24.62;38.51
11936;BME280;6027;48.576;9.180;2023-06-24T12:33:27;97557.28;;;24.76;38.63
11936;BME280;6027;48.576;9.180;2023-06-24T12:35:53;97558.69;;;24.84;35.45
11936;BME280;6027;48.576;9.180;2023-06-24T12:38:18;97558.16;;;24.87;38.57
11936;BME280;6027;48.576;9.180;2023-06-24T12:43:12;97554.94;;;24.90;35.60
11936;BME280;6027;48.576;9.180;2023-06-24T12:45:41;97551.44;;;24.89;36.20
11936;BME280;6027;48.576;9.180;2023-06-24T12:48:10;97556.66;;;24.96;35.13
11936;BME280;6027;48.576;9.180;2023-06-24T12:50:35;97552.63;;;24.98;35.20
11936;BME280;6027;48.576;9.180;2023-06-24T12:53:01;97552.91;;;25.02;34.47
11936;BME280;6027;48.576;9.180;2023-06-24T12:55:28;97547.78;;;25.00;33.75
11936;BME280;6027;48.576;9.180;2023-06-24T12:57:54;97547.72;;;24.95;35.40
11936;BME280;6027;48.576;9.180;2023-06-24T13:00:20;97546.78;;;24.85;33.00
11936;BME280;6027;48.576;9.180;2023-06-24T13:02:46;97546.31;;;24.93;32.60
11936;BME280;6027;48.576;9.180;2023-06-24T13:05:12;97538.91;;;24.83;36.72
11936;BME280;6027;48.576;9.180;2023-06-24T13:07:37;97530.97;;;24.98;34.40
11936;BME280;6027;48.576;9.180;2023-06-24T13:10:03;97526.63;;;24.97;33.32
11936;BME280;6027;48.576;9.180;2023-06-24T13:12:34;97529.91;;;25.04;33.16
11936;BME280;6027;48.576;9.180;2023-06-24T13:14:59;97535.06;;;25.06;33.46
11936;BME280;6027;48.576;9.180;2023-06-24T13:17:25;97531.59;;;25.10;33.80
11936;BME280;6027;48.576;9.180;2023-06-24T13:19:51;97520.69;;;25.05;31.83
11936;BME280;6027;48.576;9.180;2023-06-24T13:22:17;97528.00;;;25.05;32.36
11936;BME280;6027;48.576;9.180;2023-06-24T13:24:44;97520.69;;;25.05;33.68
11936;BME280;6027;48.576;9.180;2023-06-24T13:27:10;97524.03;;;25.12;32.35
11936;BME280;6027;48.576;9.180;2023-06-24T13:29:36;97524.28;;;25.11;33.14
11936;BME280;6027;48.576;9.180;2023-06-24T13:32:08;97517.34;;;25.25;32.76
11936;BME280;6027;48.576;9.180;2023-06-24T13:34:34;97517.63;;;25.29;33.07
11936;BME280;6027;48.576;9.180;2023-06-24T13:36:59;97517.38;;;25.30;32.81